Главная страница
METAR-TAF:

METAR-TAF

Аэропорты :

Penn Yan Airport

Penn Yan, Нью-Йорк, США

широта: 42-38-35N, долгота: 077-02-58W, высота над уровнем моря: 275 м

Текущие метеонаблюдения

Эта сводка был подготовлена 46 минут назад, в 14:53 UTC
Ветер 6 Узел от юго-восточный
Температура -3°C
Влажность 74%
Давление 1029 hPa
Видимость: 16.1 км
ясное небо

METAR: KPEO 151453Z AUTO 14006KT 10SM CLR M03/M07 A3039 RMK AO2 SLP307 T10281072 58026

Время: 10:39 (15:39 UTC)


TAF: отсутствует

Метеонаблюдения и прогнозы для более 4000 аэропортов (сводки METAR и TAF).

Имеющиеся станции представлены на карте желтыми и красными точками.

Чтобы увидеть название станции, наведите на нее мышь.

Затем щелкните, чтобы увидеть метеонаблюдения и метеопрогнозы.

Управление картой: чтобы увеличить масштаб, щелкните зеленые кнопки с черным крестиком; чтобы уменьшить масштаб, щелкните зеленую кнопку с тире; для просмотра соседних карт щелкайте зеленые стрелки.


METAR-TAF: